createdAt,value
2017-01-25T00:00:00.411Z,20.85
2017-01-25T00:00:30.446Z,20.95
2017-01-25T00:01:00.482Z,20.95
2017-01-25T00:01:30.508Z,20.95
2017-01-25T00:02:00.545Z,20.85
2017-01-25T00:02:30.575Z,20.85
2017-01-25T00:03:00.612Z,21.23
2017-01-25T00:03:30.672Z,21.14
2017-01-25T00:04:00.675Z,21.23
2017-01-25T00:04:30.733Z,21.61
2017-01-25T00:05:00.743Z,21.33
2017-01-25T00:05:30.772Z,21.33
2017-01-25T00:06:00.805Z,21.51
2017-01-25T00:06:30.839Z,21.42
2017-01-25T00:07:00.875Z,21.42
2017-01-25T00:07:30.906Z,21.42
2017-01-25T00:08:00.937Z,21.42
2017-01-25T00:08:30.968Z,21.42
2017-01-25T00:09:01.405Z,21.51
2017-01-25T00:09:31.047Z,21.42
2017-01-25T00:10:01.273Z,20.95
2017-01-25T00:10:31.101Z,21.04
2017-01-25T00:11:01.138Z,21.33
2017-01-25T00:11:31.166Z,21.33
2017-01-25T00:12:01.200Z,21.04
2017-01-25T00:12:31.242Z,21.04
2017-01-25T00:13:01.272Z,21.04
2017-01-25T00:13:31.319Z,21.04
2017-01-25T00:14:01.335Z,21.04
2017-01-25T00:14:31.362Z,20.95
2017-01-25T00:15:01.397Z,20.95
2017-01-25T00:15:31.430Z,20.85
2017-01-25T00:16:01.466Z,20.95
2017-01-25T00:16:31.499Z,20.85
2017-01-25T00:17:01.528Z,20.85
2017-01-25T00:17:31.561Z,21.23
2017-01-25T00:18:01.589Z,21.14
2017-01-25T00:18:31.623Z,21.23
2017-01-25T00:19:01.663Z,21.42
2017-01-25T00:19:31.729Z,21.23
2017-01-25T00:20:01.724Z,21.23
2017-01-25T00:20:31.754Z,21.14
2017-01-25T00:21:01.786Z,21.14
2017-01-25T00:21:31.818Z,21.23
2017-01-25T00:22:01.853Z,21.23
2017-01-25T00:22:31.890Z,21.23
2017-01-25T00:23:01.924Z,21.14
2017-01-25T00:23:31.949Z,20.85
2017-01-25T00:24:01.981Z,20.95
2017-01-25T00:24:32.018Z,21.42
2017-01-25T00:25:02.050Z,21.42
2017-01-25T00:25:32.087Z,21.42
2017-01-25T00:26:02.121Z,21.61
2017-01-25T00:26:32.150Z,21.42
2017-01-25T00:27:02.181Z,21.42
2017-01-25T00:27:32.216Z,21.61
2017-01-25T00:28:02.253Z,21.42
2017-01-25T00:28:32.286Z,21.42
2017-01-25T00:29:02.317Z,21.42
2017-01-25T00:29:32.354Z,21.51
2017-01-25T00:30:02.380Z,21.42
2017-01-25T00:30:32.425Z,21.42
2017-01-25T00:31:02.448Z,21.61
2017-01-25T00:31:32.482Z,21.61
2017-01-25T00:32:02.512Z,21.61
2017-01-25T00:32:32.570Z,21.7
2017-01-25T00:33:02.586Z,21.33
2017-01-25T00:33:32.606Z,21.33
2017-01-25T00:34:02.642Z,21.51
2017-01-25T00:34:32.692Z,21.42
2017-01-25T00:35:02.726Z,21.23
2017-01-25T00:35:32.737Z,21.51
2017-01-25T00:36:02.771Z,21.8
2017-01-25T00:36:32.803Z,21.42
2017-01-25T00:37:02.842Z,21.51
2017-01-25T00:37:32.866Z,21.42
2017-01-25T00:38:02.902Z,21.51
2017-01-25T00:38:32.934Z,21.51
2017-01-25T00:39:02.970Z,21.51
2017-01-25T00:39:32.999Z,21.51
2017-01-25T00:40:03.034Z,21.51
2017-01-25T00:40:33.066Z,21.51
2017-01-25T00:41:03.103Z,21.51
2017-01-25T00:41:33.130Z,21.61
2017-01-25T00:42:03.164Z,21.8
2017-01-25T00:42:33.196Z,21.42
2017-01-25T00:43:03.229Z,21.61
2017-01-25T00:43:33.270Z,21.7
2017-01-25T00:44:03.297Z,21.7
2017-01-25T00:44:33.323Z,21.51
2017-01-25T00:45:03.359Z,21.51
2017-01-25T00:45:33.393Z,21.42
2017-01-25T00:46:03.428Z,21.51
2017-01-25T00:46:33.456Z,21.7
2017-01-25T00:47:03.497Z,21.7
2017-01-25T00:47:33.524Z,21.51
2017-01-25T00:48:03.555Z,21.7
2017-01-25T00:48:33.762Z,21.42
2017-01-25T00:49:03.625Z,21.99
2017-01-25T00:49:33.653Z,21.61
2017-01-25T00:50:03.688Z,21.89
2017-01-25T00:50:33.718Z,21.8
2017-01-25T00:51:03.754Z,21.42
2017-01-25T00:51:33.788Z,21.51
2017-01-25T00:52:03.818Z,21.51
2017-01-25T00:52:33.854Z,21.51
2017-01-25T00:53:03.884Z,21.61
2017-01-25T00:53:33.936Z,21.51
2017-01-25T00:54:03.949Z,21.61
2017-01-25T00:54:33.981Z,21.61
2017-01-25T00:55:04.015Z,21.61
2017-01-25T00:55:34.051Z,21.51
2017-01-25T00:56:04.080Z,21.51
2017-01-25T00:56:34.108Z,21.51
2017-01-25T00:57:04.144Z,21.51
2017-01-25T00:57:34.179Z,21.51
2017-01-25T00:58:04.209Z,21.61
2017-01-25T00:58:34.240Z,21.42
2017-01-25T00:59:04.275Z,21.51
2017-01-25T00:59:34.314Z,21.42
2017-01-25T01:00:04.340Z,21.99
2017-01-25T01:00:34.400Z,21.61
2017-01-25T01:01:04.403Z,21.61
2017-01-25T01:01:34.441Z,21.61
2017-01-25T01:02:04.471Z,21.61
2017-01-25T01:02:34.502Z,21.51
2017-01-25T01:03:04.539Z,21.51
2017-01-25T01:03:34.570Z,21.51
2017-01-25T01:04:04.604Z,21.51
2017-01-25T01:04:34.633Z,21.89
2017-01-25T01:05:04.667Z,21.8
2017-01-25T01:05:34.722Z,21.89
2017-01-25T01:06:04.731Z,21.8
2017-01-25T01:06:34.764Z,21.61
2017-01-25T01:07:04.803Z,21.8
2017-01-25T01:07:34.830Z,21.89
2017-01-25T01:08:04.866Z,21.61
2017-01-25T01:08:34.896Z,21.89
2017-01-25T01:09:04.940Z,21.51
2017-01-25T01:09:34.960Z,21.7
2017-01-25T01:10:04.996Z,21.8
2017-01-25T01:10:35.023Z,21.7
2017-01-25T01:11:05.060Z,21.61
2017-01-25T01:11:35.095Z,21.61
2017-01-25T01:12:05.132Z,21.61
2017-01-25T01:12:35.158Z,21.89
2017-01-25T01:13:05.194Z,21.61
2017-01-25T01:13:35.224Z,21.51
2017-01-25T01:14:05.261Z,21.7
2017-01-25T01:14:35.295Z,21.7
2017-01-25T01:15:05.351Z,21.61
2017-01-25T01:15:35.363Z,21.42
2017-01-25T01:16:05.390Z,21.61
2017-01-25T01:16:35.423Z,21.23
2017-01-25T01:17:05.453Z,21.42
2017-01-25T01:17:35.487Z,21.42
2017-01-25T01:18:05.515Z,21.61
2017-01-25T01:18:35.550Z,21.51
2017-01-25T01:19:05.587Z,21.42
2017-01-25T01:19:35.621Z,21.42
2017-01-25T01:20:05.656Z,21.42
2017-01-25T01:20:35.684Z,21.51
2017-01-25T01:21:05.716Z,21.42
2017-01-25T01:21:35.752Z,21.7
2017-01-25T01:22:05.786Z,21.51
2017-01-25T01:22:35.815Z,21.7
2017-01-25T01:23:05.845Z,21.51
2017-01-25T01:23:35.880Z,21.51
2017-01-25T01:24:05.913Z,21.7
2017-01-25T01:24:35.941Z,21.51
2017-01-25T01:25:05.998Z,21.42
2017-01-25T01:25:36.008Z,21.7
2017-01-25T01:26:06.063Z,21.51
2017-01-25T01:26:36.074Z,21.7
2017-01-25T01:27:06.115Z,21.51
2017-01-25T01:27:36.138Z,21.51
2017-01-25T01:28:06.176Z,21.51
2017-01-25T01:28:36.206Z,21.51
2017-01-25T01:29:06.240Z,21.51
2017-01-25T01:29:36.271Z,21.99
2017-01-25T01:30:06.303Z,21.51
2017-01-25T01:30:36.336Z,21.51
2017-01-25T01:31:06.369Z,21.61
2017-01-25T01:31:36.403Z,21.51
2017-01-25T01:32:06.436Z,21.51
2017-01-25T01:32:36.471Z,21.51
2017-01-25T01:33:06.525Z,21.42
2017-01-25T01:33:36.532Z,21.51
2017-01-25T01:34:06.576Z,21.51
2017-01-25T01:34:36.601Z,21.51
2017-01-25T01:35:06.654Z,21.61
2017-01-25T01:35:36.662Z,21.61
2017-01-25T01:36:06.694Z,21.61
2017-01-25T01:36:36.730Z,21.61
2017-01-25T01:37:06.771Z,21.7
2017-01-25T01:37:36.818Z,21.7
2017-01-25T01:38:06.830Z,21.61
2017-01-25T01:38:36.856Z,21.7
2017-01-25T01:39:06.892Z,21.61
2017-01-25T01:39:36.922Z,21.51
2017-01-25T01:40:06.957Z,21.42
2017-01-25T01:40:36.996Z,21.99
2017-01-25T01:41:07.021Z,21.61
2017-01-25T01:41:37.056Z,21.51
2017-01-25T01:42:07.098Z,21.7
2017-01-25T01:42:37.124Z,21.42
2017-01-25T01:43:07.245Z,21.61
2017-01-25T01:43:37.197Z,21.51
2017-01-25T01:44:07.222Z,21.51
2017-01-25T01:44:37.255Z,21.61
2017-01-25T01:45:07.284Z,21.51
2017-01-25T01:45:37.314Z,21.8
2017-01-25T01:46:07.350Z,21.61
2017-01-25T01:46:37.384Z,21.51
2017-01-25T01:47:07.416Z,21.7
2017-01-25T01:47:37.455Z,21.61
2017-01-25T01:48:07.486Z,21.51
2017-01-25T01:48:37.513Z,21.61
2017-01-25T01:49:07.547Z,21.89
2017-01-25T01:49:37.577Z,21.61
2017-01-25T01:50:07.616Z,21.7
2017-01-25T01:50:37.644Z,21.51
2017-01-25T01:51:07.684Z,21.42
2017-01-25T01:51:37.711Z,21.42
2017-01-25T01:52:07.761Z,21.51
2017-01-25T01:52:37.778Z,21.51
2017-01-25T01:53:07.810Z,21.61
2017-01-25T01:53:37.840Z,21.51
2017-01-25T01:54:07.893Z,21.61
2017-01-25T01:54:37.907Z,21.61
2017-01-25T01:55:07.937Z,21.42
2017-01-25T01:55:37.970Z,21.61
2017-01-25T01:56:08.005Z,21.51
2017-01-25T01:56:38.060Z,21.51
2017-01-25T01:57:08.075Z,21.42
2017-01-25T01:57:38.109Z,21.7
2017-01-25T01:58:08.136Z,21.7
2017-01-25T01:58:38.172Z,21.7
2017-01-25T01:59:08.204Z,21.61
2017-01-25T01:59:38.234Z,21.99
2017-01-25T02:00:08.272Z,21.8
2017-01-25T02:00:38.303Z,21.89
2017-01-25T02:01:08.363Z,21.89
2017-01-25T02:01:38.365Z,21.8
2017-01-25T02:02:08.401Z,21.8
2017-01-25T02:02:38.442Z,21.99
2017-01-25T02:03:08.460Z,21.51
2017-01-25T02:03:38.494Z,21.51
2017-01-25T02:04:08.537Z,21.99
2017-01-25T02:04:38.559Z,21.51
2017-01-25T02:05:08.597Z,21.8
2017-01-25T02:05:38.633Z,21.7
2017-01-25T02:06:08.662Z,21.51
2017-01-25T02:06:38.693Z,21.8
2017-01-25T02:07:08.735Z,21.42
2017-01-25T02:07:38.758Z,21.51
2017-01-25T02:08:08.792Z,21.42
2017-01-25T02:08:38.827Z,21.42
2017-01-25T02:09:08.859Z,21.42
2017-01-25T02:09:38.889Z,21.33
2017-01-25T02:10:08.921Z,21.23
2017-01-25T02:10:38.952Z,21.23
2017-01-25T02:11:09.008Z,21.23
2017-01-25T02:11:39.025Z,21.14
2017-01-25T02:12:09.074Z,21.42
2017-01-25T02:12:39.084Z,21.42
2017-01-25T02:13:09.121Z,21.51
2017-01-25T02:13:39.150Z,21.61
2017-01-25T02:14:09.189Z,21.42
2017-01-25T02:14:39.227Z,21.7
2017-01-25T02:15:09.251Z,21.61
2017-01-25T02:15:39.281Z,21.14
2017-01-25T02:16:09.316Z,21.51
2017-01-25T02:16:39.348Z,21.61
2017-01-25T02:17:09.377Z,21.7
2017-01-25T02:17:39.413Z,21.89
2017-01-25T02:18:09.442Z,21.8
2017-01-25T02:18:39.480Z,21.51
2017-01-25T02:19:09.540Z,21.61
2017-01-25T02:19:39.543Z,21.51
2017-01-25T02:20:09.699Z,21.51
2017-01-25T02:20:39.625Z,21.51
2017-01-25T02:21:10.012Z,21.51
2017-01-25T02:21:39.727Z,21.51
2017-01-25T02:22:09.714Z,21.51
2017-01-25T02:22:39.752Z,21.7
2017-01-25T02:23:09.777Z,21.7
2017-01-25T02:23:39.886Z,21.7
2017-01-25T02:24:10.001Z,21.51
2017-01-25T02:24:39.890Z,21.51
2017-01-25T02:25:10.013Z,21.61
2017-01-25T02:25:39.972Z,21.51
2017-01-25T02:26:10.033Z,21.89
2017-01-25T02:26:40.041Z,21.89
2017-01-25T02:27:10.210Z,21.61
2017-01-25T02:27:40.177Z,21.8
2017-01-25T02:28:10.111Z,21.8
2017-01-25T02:28:40.149Z,21.8
2017-01-25T02:29:10.247Z,21.89
2017-01-25T02:29:40.362Z,21.7
2017-01-25T02:30:29.581Z,21.8
2017-01-25T02:30:40.318Z,21.99
2017-01-25T02:31:10.301Z,21.8
2017-01-25T02:31:40.372Z,21.99
2017-01-25T02:32:10.469Z,21.89
2017-01-25T02:32:40.431Z,21.8
2017-01-25T02:33:10.477Z,21.89
2017-01-25T02:33:41.187Z,21.8
2017-01-25T02:34:10.513Z,21.7
2017-01-25T02:34:40.548Z,21.8
2017-01-25T02:35:10.574Z,21.8
2017-01-25T02:35:40.595Z,21.7
2017-01-25T02:36:10.658Z,21.7
2017-01-25T02:36:40.868Z,21.8
2017-01-25T02:37:10.772Z,21.7
2017-01-25T02:37:40.742Z,21.7
2017-01-25T02:38:10.814Z,21.8
2017-01-25T02:38:40.793Z,21.8
2017-01-25T02:39:10.822Z,21.89
2017-01-25T02:39:40.871Z,21.8
2017-01-25T02:40:10.953Z,21.99
2017-01-25T02:40:40.926Z,21.8
2017-01-25T02:41:11.005Z,21.89
2017-01-25T02:41:41.030Z,21.8
2017-01-25T02:42:11.099Z,21.7
2017-01-25T02:42:41.085Z,21.7
2017-01-25T02:43:11.082Z,21.8
2017-01-25T02:43:41.340Z,21.99
2017-01-25T02:44:11.149Z,21.7
2017-01-25T02:44:41.197Z,21.7
2017-01-25T02:45:11.214Z,21.51
2017-01-25T02:45:41.292Z,22.08
2017-01-25T02:46:11.333Z,21.51
2017-01-25T02:46:41.423Z,21.51
2017-01-25T02:47:11.459Z,21.7
2017-01-25T02:47:41.383Z,21.7
2017-01-25T02:48:11.428Z,21.51
2017-01-25T02:48:41.559Z,21.8
2017-01-25T02:49:11.541Z,21.8
2017-01-25T02:49:41.522Z,21.89
2017-01-25T02:50:11.541Z,21.61
2017-01-25T02:50:41.615Z,21.7
2017-01-25T02:51:11.611Z,21.7
2017-01-25T02:51:41.642Z,21.8
2017-01-25T02:52:11.709Z,21.7
2017-01-25T02:52:41.710Z,21.8
2017-01-25T02:53:11.892Z,21.61
2017-01-25T02:53:41.779Z,21.61
2017-01-25T02:54:11.825Z,21.7
2017-01-25T02:54:41.834Z,22.18
2017-01-25T02:55:11.919Z,21.51
2017-01-25T02:55:41.902Z,21.51
2017-01-25T02:56:12.036Z,21.7
2017-01-25T02:56:41.970Z,21.99
2017-01-25T02:57:12.005Z,22.08
2017-01-25T02:57:42.075Z,21.89
2017-01-25T02:58:12.157Z,21.7
2017-01-25T02:58:42.175Z,21.61
2017-01-25T02:59:12.161Z,22.08
2017-01-25T02:59:42.177Z,22.37
2017-01-25T03:00:12.575Z,22.08
2017-01-25T03:00:42.271Z,22.08
2017-01-25T03:01:12.322Z,22.08
2017-01-25T03:01:42.331Z,21.99
2017-01-25T03:02:12.332Z,22.08
2017-01-25T03:02:42.359Z,21.99
2017-01-25T03:03:12.394Z,21.8
2017-01-25T03:03:42.435Z,21.99
2017-01-25T03:04:12.509Z,22.08
2017-01-25T03:04:42.502Z,21.8
2017-01-25T03:05:12.875Z,21.89
2017-01-25T03:05:42.824Z,21.99
2017-01-25T03:06:12.596Z,21.7
2017-01-25T03:06:42.700Z,21.8
2017-01-25T03:07:12.662Z,22.08
2017-01-25T03:07:42.725Z,22.46
2017-01-25T03:08:12.897Z,22.18
2017-01-25T03:08:42.891Z,22.56
2017-01-25T03:09:12.979Z,22.18
2017-01-25T03:09:42.871Z,22.08
2017-01-25T03:10:12.955Z,22.08
2017-01-25T03:10:42.993Z,21.61
2017-01-25T03:11:12.930Z,21.8
2017-01-25T03:11:42.961Z,21.8
2017-01-25T03:12:12.982Z,21.7
2017-01-25T03:12:43.012Z,21.8
2017-01-25T03:13:13.378Z,22.18
2017-01-25T03:13:43.108Z,21.99
2017-01-25T03:14:13.133Z,21.99
2017-01-25T03:14:43.436Z,21.99
2017-01-25T03:15:13.189Z,21.89
2017-01-25T03:15:43.266Z,21.99
2017-01-25T03:16:13.422Z,21.99
2017-01-25T03:16:43.351Z,22.08
2017-01-25T03:17:13.320Z,21.89
2017-01-25T03:17:43.373Z,21.99
2017-01-25T03:18:13.434Z,21.99
2017-01-25T03:18:43.408Z,22.65
2017-01-25T03:19:13.453Z,22.08
2017-01-25T03:19:43.558Z,22.18
2017-01-25T03:20:13.514Z,22.18
2017-01-25T03:20:43.541Z,22.18
2017-01-25T03:21:13.621Z,21.99
2017-01-25T03:21:43.609Z,21.7
2017-01-25T03:22:13.634Z,21.7
2017-01-25T03:22:43.673Z,21.8
2017-01-25T03:23:13.845Z,21.7
2017-01-25T03:23:43.857Z,22.18
2017-01-25T03:24:13.847Z,22.18
2017-01-25T03:24:43.814Z,21.89
2017-01-25T03:25:13.826Z,22.18
2017-01-25T03:25:43.880Z,22.08
2017-01-25T03:26:13.895Z,21.7
2017-01-25T03:26:44.380Z,22.08
2017-01-25T03:27:14.167Z,21.89
2017-01-25T03:27:44.020Z,21.99
2017-01-25T03:28:14.021Z,21.99
2017-01-25T03:28:44.071Z,21.99
2017-01-25T03:29:14.201Z,21.89
2017-01-25T03:29:44.145Z,21.99
2017-01-25T03:30:14.170Z,21.99
2017-01-25T03:30:44.207Z,21.8
2017-01-25T03:31:14.237Z,21.99
2017-01-25T03:31:44.253Z,21.99
2017-01-25T03:33:14.350Z,21.99
2017-01-25T03:33:44.395Z,21.99
2017-01-25T03:34:18.960Z,21.89
2017-01-25T03:34:46.001Z,21.99
2017-01-25T03:35:15.103Z,21.99
2017-01-25T03:35:44.521Z,21.89
2017-01-25T03:36:21.207Z,21.99
2017-01-25T03:36:49.616Z,21.89
2017-01-25T03:37:14.628Z,21.8
2017-01-25T03:37:44.649Z,21.8
2017-01-25T03:38:14.680Z,22.18
2017-01-25T03:38:44.714Z,21.8
2017-01-25T03:39:14.744Z,21.8
2017-01-25T03:39:44.779Z,21.8
2017-01-25T03:40:14.808Z,21.8
2017-01-25T03:40:44.841Z,21.7
2017-01-25T03:41:14.876Z,21.8
2017-01-25T03:41:44.909Z,21.8
2017-01-25T03:42:14.945Z,21.8
2017-01-25T03:42:44.971Z,21.89
2017-01-25T03:43:15.005Z,21.7
2017-01-25T03:43:45.040Z,21.99
2017-01-25T03:44:15.088Z,21.99
2017-01-25T03:44:45.104Z,21.89
2017-01-25T03:45:15.136Z,22.18
2017-01-25T03:45:45.167Z,21.89
2017-01-25T03:46:15.198Z,22.18
2017-01-25T03:46:45.257Z,22.08
2017-01-25T03:47:15.267Z,22.08
2017-01-25T03:47:45.306Z,21.89
2017-01-25T03:48:15.334Z,21.89
2017-01-25T03:48:45.366Z,21.7
2017-01-25T03:49:15.401Z,21.8
2017-01-25T03:49:45.433Z,21.8
2017-01-25T03:50:15.464Z,21.99
2017-01-25T03:50:45.497Z,21.89
2017-01-25T03:51:15.531Z,21.99
2017-01-25T03:51:45.562Z,21.89
2017-01-25T03:52:15.595Z,21.89
2017-01-25T03:52:45.626Z,21.8
2017-01-25T03:53:15.660Z,21.7
2017-01-25T03:53:45.696Z,22.18
2017-01-25T03:54:15.725Z,21.8
2017-01-25T03:54:45.764Z,21.89
2017-01-25T03:55:15.793Z,22.18
2017-01-25T03:55:45.821Z,22.08
2017-01-25T03:56:15.874Z,22.08
2017-01-25T03:56:45.887Z,21.8
2017-01-25T03:57:15.921Z,21.99
2017-01-25T03:57:45.954Z,21.99
2017-01-25T03:58:15.991Z,21.99
2017-01-25T03:58:46.020Z,21.99
2017-01-25T03:59:16.066Z,21.99
2017-01-25T03:59:46.081Z,21.89
2017-01-25T04:00:16.124Z,21.8
2017-01-25T04:00:46.173Z,21.8
2017-01-25T04:01:16.183Z,21.99
2017-01-25T04:01:46.217Z,21.8
2017-01-25T04:02:16.247Z,21.99
2017-01-25T04:02:46.281Z,21.99
2017-01-25T04:03:16.319Z,21.8
2017-01-25T04:03:46.348Z,21.8
2017-01-25T04:04:16.382Z,21.61
2017-01-25T04:04:46.440Z,21.99
2017-01-25T04:05:16.439Z,21.8
2017-01-25T04:05:46.483Z,21.99
2017-01-25T04:06:16.510Z,21.8
2017-01-25T04:06:46.571Z,21.8
2017-01-25T04:07:16.574Z,21.61
2017-01-25T04:07:46.610Z,21.8
2017-01-25T04:08:16.641Z,22.08
2017-01-25T04:08:46.672Z,22.08
2017-01-25T04:09:16.710Z,21.89
2017-01-25T04:09:46.734Z,22.27
2017-01-25T04:10:16.770Z,22.46
2017-01-25T04:10:46.811Z,22.08
2017-01-25T04:11:16.838Z,22.18
2017-01-25T04:11:46.868Z,22.18
2017-01-25T04:12:16.899Z,22.08
2017-01-25T04:12:46.936Z,21.99
2017-01-25T04:13:16.968Z,21.7
2017-01-25T04:13:46.999Z,21.8
2017-01-25T04:14:17.030Z,21.8
2017-01-25T04:14:47.064Z,21.61
2017-01-25T04:15:17.097Z,21.7
2017-01-25T04:15:47.138Z,21.99
2017-01-25T04:16:17.163Z,22.08
2017-01-25T04:16:47.194Z,22.18
2017-01-25T04:17:17.229Z,22.08
2017-01-25T04:17:47.262Z,22.27
2017-01-25T04:18:17.297Z,22.46
2017-01-25T04:18:47.328Z,22.37
2017-01-25T04:19:17.361Z,22.18
2017-01-25T04:19:47.389Z,22.27
2017-01-25T04:20:17.423Z,22.18
2017-01-25T04:20:47.458Z,22.18
2017-01-25T04:21:17.493Z,22.18
2017-01-25T04:21:47.520Z,22.27
2017-01-25T04:22:17.553Z,22.27
2017-01-25T04:22:47.584Z,22.18
2017-01-25T04:23:17.621Z,22.27
2017-01-25T04:23:47.654Z,22.08
2017-01-25T04:24:17.684Z,22.27
2017-01-25T04:24:47.719Z,22.27
2017-01-25T04:25:17.754Z,22.65
2017-01-25T04:25:47.782Z,22.37
2017-01-25T04:26:17.812Z,22.46
2017-01-25T04:26:47.859Z,22.46
2017-01-25T04:27:17.882Z,22.46
2017-01-25T04:27:47.917Z,22.46
2017-01-25T04:28:17.944Z,22.46
2017-01-25T04:28:47.980Z,22.37
2017-01-25T04:29:18.013Z,22.37
2017-01-25T04:29:48.043Z,22.27
2017-01-25T04:30:18.078Z,22.37
2017-01-25T04:30:48.109Z,22.56
2017-01-25T04:31:18.142Z,22.18
2017-01-25T04:31:48.172Z,22.27
2017-01-25T04:32:18.210Z,22.37
2017-01-25T04:32:48.237Z,22.46
2017-01-25T04:33:18.270Z,22.37
2017-01-25T04:33:48.307Z,22.46
2017-01-25T04:34:18.340Z,22.37
2017-01-25T04:34:48.370Z,22.37
2017-01-25T04:35:18.460Z,22.37
2017-01-25T04:35:48.431Z,22.37
2017-01-25T04:36:18.469Z,22.56
2017-01-25T04:36:48.508Z,22.46
2017-01-25T04:37:18.562Z,22.46
2017-01-25T04:37:48.566Z,22.37
2017-01-25T04:38:18.595Z,22.37
2017-01-25T04:38:48.633Z,22.37
2017-01-25T04:39:18.675Z,22.46
2017-01-25T04:39:48.693Z,22.37
2017-01-25T04:40:18.727Z,22.46
2017-01-25T04:40:48.759Z,22.37
2017-01-25T04:41:18.792Z,22.46
2017-01-25T04:41:48.852Z,22.37
2017-01-25T04:42:18.853Z,22.46
2017-01-25T04:42:48.889Z,22.56
2017-01-25T04:43:18.937Z,22.37
2017-01-25T04:43:48.957Z,22.46
2017-01-25T04:44:18.983Z,22.37
2017-01-25T04:44:49.015Z,22.37
2017-01-25T04:45:19.049Z,22.37
2017-01-25T04:45:49.082Z,22.46
2017-01-25T04:46:19.113Z,22.37
2017-01-25T04:46:49.144Z,22.46
2017-01-25T04:47:19.185Z,22.56
2017-01-25T04:47:49.212Z,22.37
2017-01-25T04:48:19.260Z,22.37
2017-01-25T04:48:49.272Z,22.27
2017-01-25T04:49:19.307Z,22.37
2017-01-25T04:49:49.338Z,22.37
2017-01-25T04:50:19.370Z,22.37
2017-01-25T04:50:49.408Z,22.37
2017-01-25T04:51:19.436Z,22.27
2017-01-25T04:51:49.468Z,22.27
2017-01-25T04:52:19.499Z,22.37
2017-01-25T04:52:49.540Z,22.37
2017-01-25T04:53:19.569Z,22.37
2017-01-25T04:53:49.609Z,22.37
2017-01-25T04:54:19.634Z,22.27
2017-01-25T04:54:49.672Z,22.27
2017-01-25T04:55:19.697Z,22.37
2017-01-25T04:55:49.736Z,22.37
2017-01-25T04:56:19.762Z,22.37
2017-01-25T04:56:49.790Z,22.37
2017-01-25T04:57:19.853Z,22.46
2017-01-25T04:57:49.856Z,22.18
2017-01-25T04:58:19.886Z,21.99
2017-01-25T04:58:49.924Z,22.08
2017-01-25T04:59:19.954Z,22.37
2017-01-25T04:59:49.983Z,22.18
2017-01-25T05:00:20.026Z,22.37
2017-01-25T05:00:50.049Z,22.18
2017-01-25T05:01:20.083Z,22.18
2017-01-25T05:01:50.113Z,22.27
2017-01-25T05:02:20.147Z,22.27
2017-01-25T05:02:50.214Z,22.18
2017-01-25T05:03:20.211Z,22.18
2017-01-25T05:03:50.244Z,22.27
2017-01-25T05:04:20.279Z,22.27
2017-01-25T05:04:50.307Z,22.46
2017-01-25T05:05:25.425Z,22.37
2017-01-25T05:05:55.466Z,22.27
2017-01-25T05:06:25.485Z,22.46
2017-01-25T05:06:55.513Z,22.46
2017-01-25T05:07:25.549Z,22.37
2017-01-25T05:07:55.583Z,22.37
2017-01-25T05:08:25.614Z,22.37
2017-01-25T05:08:55.648Z,22.37
2017-01-25T05:09:25.678Z,22.37
2017-01-25T05:09:55.714Z,22.37
2017-01-25T05:10:25.748Z,22.37
2017-01-25T05:10:55.779Z,22.56
2017-01-25T05:11:25.986Z,22.27
2017-01-25T05:11:55.840Z,22.37
2017-01-25T05:12:25.871Z,22.37
2017-01-25T05:12:55.904Z,22.37
2017-01-25T05:13:25.951Z,22.56
2017-01-25T05:13:55.970Z,22.46
2017-01-25T05:14:25.998Z,22.37
2017-01-25T05:14:56.039Z,22.56
2017-01-25T05:15:26.064Z,22.37
2017-01-25T05:15:56.096Z,22.37
2017-01-25T05:16:26.130Z,22.46
2017-01-25T05:16:56.167Z,22.56
2017-01-25T05:17:26.197Z,22.37
2017-01-25T05:17:56.226Z,22.37
2017-01-25T05:18:26.259Z,22.37
2017-01-25T05:18:56.293Z,22.27
2017-01-25T05:19:26.338Z,22.37
2017-01-25T05:19:56.356Z,22.27
2017-01-25T05:20:26.396Z,22.46
2017-01-25T05:20:56.428Z,22.27
2017-01-25T05:21:26.453Z,22.46
2017-01-25T05:21:56.486Z,22.56
2017-01-25T05:22:26.517Z,22.37
2017-01-25T05:22:56.552Z,22.56
2017-01-25T05:23:26.592Z,22.56
2017-01-25T05:23:56.612Z,22.37
2017-01-25T05:24:26.646Z,22.27
2017-01-25T05:24:56.682Z,22.46
2017-01-25T05:25:26.714Z,22.27
2017-01-25T05:25:56.744Z,22.18
2017-01-25T05:26:26.775Z,22.27
2017-01-25T05:26:56.814Z,22.65
2017-01-25T05:27:26.842Z,22.56
2017-01-25T05:27:56.878Z,22.18
2017-01-25T05:28:26.905Z,22.18
2017-01-25T05:28:56.935Z,22.37
2017-01-25T05:29:26.975Z,22.37
2017-01-25T05:29:57.001Z,22.85
2017-01-25T05:30:27.035Z,22.18
2017-01-25T05:30:57.067Z,22.18
2017-01-25T05:31:27.100Z,22.27
2017-01-25T05:31:57.159Z,22.37
2017-01-25T05:32:27.162Z,22.27
2017-01-25T05:32:57.195Z,22.27
2017-01-25T05:33:27.231Z,22.18
2017-01-25T05:33:57.285Z,22.27
2017-01-25T05:34:27.326Z,22.27
2017-01-25T05:34:57.323Z,22.27
2017-01-25T05:35:27.360Z,22.18
2017-01-25T05:35:57.390Z,22.37
2017-01-25T05:36:27.450Z,22.27
2017-01-25T05:36:57.451Z,22.27
2017-01-25T05:37:27.483Z,22.27
2017-01-25T05:37:57.551Z,22.18
2017-01-25T05:38:27.547Z,22.27
2017-01-25T05:38:57.579Z,22.27
2017-01-25T05:39:27.613Z,22.37
2017-01-25T05:39:57.650Z,22.27
2017-01-25T05:40:27.678Z,22.27
2017-01-25T05:40:57.709Z,22.27
2017-01-25T05:41:27.740Z,22.37
2017-01-25T05:41:57.784Z,22.56
2017-01-25T05:42:27.806Z,22.94
2017-01-25T05:42:57.845Z,22.46
2017-01-25T05:43:27.882Z,22.56
2017-01-25T05:43:57.903Z,22.46
2017-01-25T05:44:27.941Z,22.46
2017-01-25T05:44:57.971Z,22.27
2017-01-25T05:45:28.001Z,22.37
2017-01-25T05:45:58.033Z,22.46
2017-01-25T05:46:28.068Z,22.37
2017-01-25T05:46:58.102Z,22.27
2017-01-25T05:47:28.131Z,22.27
2017-01-25T05:47:58.167Z,22.27
2017-01-25T05:48:28.193Z,22.46
2017-01-25T05:48:58.229Z,22.46
2017-01-25T05:49:28.263Z,22.37
2017-01-25T05:49:58.288Z,22.37
2017-01-25T05:50:28.322Z,22.27
2017-01-25T05:50:58.361Z,22.18
2017-01-25T05:51:28.387Z,22.27
2017-01-25T05:51:58.419Z,22.37
2017-01-25T05:52:28.456Z,22.27
2017-01-25T05:52:58.488Z,22.56
2017-01-25T05:53:28.516Z,22.37
2017-01-25T05:53:58.552Z,22.56
2017-01-25T05:54:28.584Z,22.27
2017-01-25T05:54:58.618Z,22.27
2017-01-25T05:55:28.650Z,22.08
2017-01-25T05:55:58.684Z,22.46
2017-01-25T05:56:28.718Z,22.46
2017-01-25T05:56:58.746Z,22.37
2017-01-25T05:57:28.777Z,22.46
2017-01-25T05:57:58.811Z,22.27
2017-01-25T05:58:28.843Z,22.27
2017-01-25T05:58:58.876Z,22.27
2017-01-25T05:59:28.912Z,22.27
2017-01-25T05:59:58.939Z,22.08
2017-01-25T06:00:28.977Z,21.7
2017-01-25T06:00:59.005Z,21.8
2017-01-25T06:01:29.036Z,21.8
2017-01-25T06:01:59.071Z,21.89
2017-01-25T06:02:29.104Z,22.08
2017-01-25T06:02:59.134Z,22.18
2017-01-25T06:03:29.164Z,22.18
2017-01-25T06:03:59.197Z,22.18
2017-01-25T06:04:29.229Z,22.08
2017-01-25T06:04:59.265Z,22.08
2017-01-25T06:05:29.297Z,22.08
2017-01-25T06:05:59.329Z,22.46
2017-01-25T06:06:29.375Z,22.37
2017-01-25T06:06:59.393Z,22.46
2017-01-25T06:07:29.429Z,22.37
2017-01-25T06:07:59.463Z,22.18
2017-01-25T06:08:29.488Z,22.27
2017-01-25T06:08:59.523Z,22.56
2017-01-25T06:09:29.590Z,22.37
2017-01-25T06:09:59.592Z,22.46
2017-01-25T06:10:29.621Z,22.46
2017-01-25T06:10:59.652Z,22.46
2017-01-25T06:11:29.682Z,22.46
2017-01-25T06:11:59.717Z,22.37
2017-01-25T06:12:29.753Z,22.46
2017-01-25T06:12:59.780Z,22.56
2017-01-25T06:13:29.816Z,22.37
2017-01-25T06:13:59.848Z,22.37
2017-01-25T06:14:29.906Z,22.37
2017-01-25T06:14:59.911Z,22.37
2017-01-25T06:15:29.945Z,22.46
2017-01-25T06:15:59.979Z,22.27
2017-01-25T06:16:30.008Z,22.18
2017-01-25T06:17:00.042Z,22.27
2017-01-25T06:17:30.071Z,22.37
2017-01-25T06:18:00.106Z,22.37
2017-01-25T06:18:30.147Z,22.46
2017-01-25T06:19:00.174Z,22.46
2017-01-25T06:19:30.204Z,22.46
2017-01-25T06:20:00.237Z,22.46
2017-01-25T06:20:30.267Z,22.37
2017-01-25T06:21:00.301Z,22.37
2017-01-25T06:21:30.329Z,22.37
2017-01-25T06:22:00.389Z,22.37
2017-01-25T06:22:30.416Z,22.37
2017-01-25T06:23:00.428Z,22.37
2017-01-25T06:23:30.463Z,22.37
2017-01-25T06:24:00.496Z,22.46
2017-01-25T06:24:30.525Z,22.27
2017-01-25T06:25:00.563Z,22.37
2017-01-25T06:25:30.589Z,22.46
2017-01-25T06:26:00.623Z,22.37
2017-01-25T06:26:30.656Z,22.27
2017-01-25T06:27:00.692Z,22.37
2017-01-25T06:27:30.748Z,22.37
2017-01-25T06:28:00.752Z,22.27
2017-01-25T06:28:30.787Z,22.27
2017-01-25T06:29:00.819Z,22.37
2017-01-25T06:29:30.855Z,22.37